KSTS/STS METAR and TAF weather

Enter ICAO airport designator
Station Type Date Time Source
KSTS METAR 2020/07/14 22:53 UTC NOAA

KSTS 142253Z 19010KT 8SM HZ CLR 24/13 A2989 RMK AO2 SLP116 T02440128


Station Type Date Time Source
KSTS Decoded METAR 2020/07/14 22:53 UTC NOAA

SANTA ROSA SONOMA COUNTY, CA, United States (KSTS) 38-30N 122-49W 39M
Jul 14, 2020 - 06:53 PM EDT / 2020.07.14 2253 UTC
Wind: from the S (190 degrees) at 12 MPH (10 KT):0
Visibility: 8 mile(s):0
Sky conditions: clear
Weather: haze
Temperature: 75.9 F (24.4 C)
Dew Point: 55.0 F (12.8 C)
Relative Humidity: 48%
Pressure (altimeter): 29.89 in. Hg (1012 hPa)
ob: KSTS 142253Z 19010KT 8SM HZ CLR 24/13 A2989 RMK AO2 SLP116 T02440128
cycle: 23

Station Type Date Time Source
KSTS TAF 2020/07/14 18:39 UTC NOAA

TAF KSTS 141737Z 1418/1518 18005KT P6SM SKC
FM142000 17010KT P6SM SKC
FM150400 16005KT P6SM SKC
FM150900 VRB03KT P6SM OVC008
FM151700 21005KT P6SM FEW009

Example: see airport list